Time;durP1;ratioP1;P1;durP2;ratioP2;P2;SDS_P1;SDS_P2;PMS_P1;PMS_P2;Temp;Humidity;BMP_temperature;BMP_pressure;BME280_temperature;BME280_humidity;BME280_pressure;Samples;Min_cycle;Max_cycle;Signal;HPM_P1;HPM_P2
2022/01/29 00:01:48;;;;;;;30.92;10.65;;;5.00;99.90;;;;;;5078598;28;20024;-45
2022/01/29 00:04:16;;;;;;;34.65;11.15;;;5.10;99.90;;;;;;5085641;28;20021;-44
2022/01/29 00:06:42;;;;;;;36.05;11.60;;;5.10;99.90;;;;;;5080201;28;20397;-45
2022/01/29 00:09:13;;;;;;;32.45;12.40;;;5.10;99.90;;;;;;5081872;28;20021;-45
2022/01/29 00:11:38;;;;;;;42.25;12.60;;;5.10;99.90;;;;;;5090924;28;20020;-44
2022/01/29 00:14:05;;;;;;;32.05;11.93;;;5.00;99.90;;;;;;5085820;28;20048;-45
2022/01/29 00:16:31;;;;;;;34.75;13.30;;;5.10;99.90;;;;;;5082344;28;20093;-45
2022/01/29 00:18:57;;;;;;;42.70;13.23;;;5.10;99.90;;;;;;5089180;28;20062;-45
2022/01/29 00:21:22;;;;;;;37.10;12.35;;;5.10;99.90;;;;;;5081609;28;20020;-45
2022/01/29 00:23:48;;;;;;;31.45;13.63;;;5.10;99.90;;;;;;5077187;28;20017;-45
2022/01/29 00:26:13;;;;;;;32.17;11.43;;;5.10;99.90;;;;;;5080118;28;20036;-44
2022/01/29 00:28:39;;;;;;;26.63;11.30;;;5.10;99.90;;;;;;5081269;28;20047;-44
2022/01/29 00:31:05;;;;;;;31.13;11.95;;;5.10;99.90;;;;;;5079395;28;20128;-44
2022/01/29 00:33:30;;;;;;;28.15;11.05;;;5.10;99.90;;;;;;5082127;28;20117;-44
2022/01/29 00:35:56;;;;;;;27.15;11.95;;;5.10;99.90;;;;;;5086569;28;20025;-44
2022/01/29 00:38:21;;;;;;;34.97;12.93;;;5.20;99.90;;;;;;5076614;28;20053;-44
2022/01/29 00:40:47;;;;;;;40.85;13.27;;;5.20;99.90;;;;;;5086166;28;20125;-45
2022/01/29 00:43:12;;;;;;;35.75;12.98;;;5.20;99.90;;;;;;5082009;28;20117;-45
2022/01/29 00:45:38;;;;;;;41.97;13.68;;;5.10;99.90;;;;;;5077283;28;20118;-44
2022/01/29 00:48:04;;;;;;;35.53;12.98;;;5.10;99.90;;;;;;5086615;28;20059;-44
2022/01/29 00:50:29;;;;;;;30.95;12.45;;;5.20;99.90;;;;;;5079943;28;20031;-44
2022/01/29 00:52:55;;;;;;;28.27;12.57;;;5.20;99.90;;;;;;5086822;28;20026;-44
2022/01/29 00:55:20;;;;;;;37.30;12.07;;;5.10;99.90;;;;;;5084109;28;20287;-45
2022/01/29 00:57:46;;;;;;;34.88;12.85;;;5.20;99.90;;;;;;5084742;28;20115;-45
2022/01/29 01:00:14;;;;;;;29.27;12.82;;;5.20;99.90;;;;;;5082780;28;20151;-45
2022/01/29 01:02:40;;;;;;;37.75;12.70;;;5.10;99.90;;;;;;5079190;28;20042;-44
2022/01/29 01:05:06;;;;;;;34.15;13.15;;;5.10;99.90;;;;;;5079168;28;20029;-44
2022/01/29 01:07:32;;;;;;;33.42;14.55;;;5.10;99.90;;;;;;5082302;28;20512;-44
2022/01/29 01:09:57;;;;;;;32.88;14.88;;;5.10;99.90;;;;;;5080491;28;20028;-45
2022/01/29 01:12:23;;;;;;;42.13;14.82;;;5.10;99.90;;;;;;5081711;28;20032;-44
2022/01/29 01:14:50;;;;;;;36.85;14.73;;;5.10;99.90;;;;;;5080538;28;20025;-44
2022/01/29 01:17:15;;;;;;;38.50;15.15;;;5.00;99.90;;;;;;5079587;28;20103;-44
2022/01/29 01:19:41;;;;;;;38.63;15.52;;;5.10;99.90;;;;;;5084466;28;20414;-44
2022/01/29 01:22:06;;;;;;;38.00;16.33;;;5.10;99.90;;;;;;5079054;28;20078;-44
2022/01/29 01:24:32;;;;;;;37.65;16.17;;;5.10;99.90;;;;;;5088749;28;20524;-44
2022/01/29 01:26:58;;;;;;;41.08;17.27;;;5.10;99.90;;;;;;5089166;28;20030;-44
2022/01/29 01:29:23;;;;;;;36.25;15.20;;;5.10;99.90;;;;;;5087645;28;20352;-45
2022/01/29 01:31:49;;;;;;;42.30;16.58;;;5.10;99.90;;;;;;5088850;28;20482;-44
2022/01/29 01:34:20;;;;;;;42.08;18.30;;;5.20;99.90;;;;;;5087971;28;20030;-45
2022/01/29 01:36:54;;;;;;;;;;;5.20;99.90;;;;;;5089233;28;20107;-49
2022/01/29 01:39:23;;;;;;;44.55;17.38;;;5.20;99.90;;;;;;5085500;28;19911;-44
2022/01/29 01:42:04;;;;;;;38.77;17.90;;;5.20;99.90;;;;;;5080173;28;20027;-44
2022/01/29 01:44:37;;;;;;;38.03;16.67;;;5.30;99.90;;;;;;5079260;28;20453;-44
2022/01/29 01:47:03;;;;;;;42.45;17.98;;;5.20;99.90;;;;;;5077637;28;20032;-45
2022/01/29 01:49:29;;;;;;;43.58;18.58;;;5.30;99.90;;;;;;5078491;28;20032;-45
2022/01/29 01:52:01;;;;;;;43.42;18.42;;;5.30;99.90;;;;;;5073501;28;20399;-45
2022/01/29 01:54:27;;;;;;;44.38;18.27;;;5.20;99.90;;;;;;5064495;28;20048;-43
2022/01/29 01:56:53;;;;;;;38.95;16.83;;;5.30;99.90;;;;;;5077638;28;20020;-44
2022/01/29 01:59:18;;;;;;;45.55;18.55;;;5.30;99.90;;;;;;5061634;28;20020;-45
2022/01/29 02:01:44;;;;;;;35.10;15.90;;;5.30;99.90;;;;;;5071762;28;20204;-43
2022/01/29 02:04:09;;;;;;;41.65;17.50;;;5.30;99.90;;;;;;5074875;28;20028;-43
2022/01/29 02:06:35;;;;;;;48.20;17.85;;;5.30;99.90;;;;;;5072348;28;20032;-43
2022/01/29 02:09:01;;;;;;;33.85;15.77;;;5.30;99.90;;;;;;5082289;28;20070;-44
2022/01/29 02:11:28;;;;;;;47.20;18.52;;;5.30;99.90;;;;;;5080906;28;20462;-44
2022/01/29 02:13:59;;;;;;;37.42;16.85;;;5.20;99.90;;;;;;5048884;28;20033;-44
2022/01/29 02:16:27;;;;;;;42.67;19.13;;;5.20;99.90;;;;;;5065203;28;20067;-43
2022/01/29 02:18:53;;;;;;;36.83;17.00;;;5.20;99.90;;;;;;5080577;28;20431;-44
2022/01/29 02:21:19;;;;;;;50.25;17.95;;;5.20;99.90;;;;;;5073283;28;20112;-44
2022/01/29 02:23:45;;;;;;;33.83;17.33;;;5.30;99.90;;;;;;5077804;28;20032;-46
2022/01/29 02:26:10;;;;;;;46.08;17.70;;;5.30;99.90;;;;;;5073048;28;20101;-44
2022/01/29 02:28:36;;;;;;;44.15;17.88;;;5.40;99.90;;;;;;5069623;28;20033;-44
2022/01/29 02:31:05;;;;;;;36.00;18.10;;;5.30;99.90;;;;;;5072358;28;20486;-47
2022/01/29 02:33:32;;;;;;;40.42;18.95;;;5.30;99.90;;;;;;5074814;28;20032;-44
2022/01/29 02:35:58;;;;;;;34.75;17.98;;;5.30;99.90;;;;;;5073761;28;20486;-45
2022/01/29 02:38:25;;;;;;;43.85;18.08;;;5.30;99.90;;;;;;5070917;28;20021;-43
2022/01/29 02:40:56;;;;;;;43.42;17.83;;;5.40;99.90;;;;;;5068159;28;20123;-46
2022/01/29 02:43:30;;;;;;;39.80;18.70;;;5.30;99.90;;;;;;5063559;28;20035;-44
2022/01/29 02:45:56;;;;;;;38.08;17.20;;;5.30;99.90;;;;;;5071138;28;20556;-44
2022/01/29 02:48:23;;;;;;;34.60;17.50;;;5.30;99.90;;;;;;5058191;28;20020;-43
2022/01/29 02:50:49;;;;;;;37.10;18.38;;;5.30;99.90;;;;;;5075730;28;20039;-44
2022/01/29 02:53:14;;;;;;;40.60;18.60;;;5.40;99.90;;;;;;5083898;28;20021;-44
2022/01/29 02:55:40;;;;;;;50.60;18.77;;;5.30;99.90;;;;;;5074145;28;20051;-44
2022/01/29 02:58:06;;;;;;;48.10;18.38;;;5.40;99.90;;;;;;5082234;28;20024;-44
2022/01/29 03:00:32;;;;;;;43.15;18.88;;;5.40;99.90;;;;;;5080993;28;20027;-44
2022/01/29 03:02:57;;;;;;;34.83;17.65;;;5.40;99.90;;;;;;5062907;28;20032;-43
2022/01/29 03:05:23;;;;;;;39.63;17.52;;;5.40;99.90;;;;;;5060562;28;20045;-44
2022/01/29 03:07:49;;;;;;;36.13;17.48;;;5.40;99.90;;;;;;5053866;28;20029;-44
2022/01/29 03:10:14;;;;;;;44.17;19.70;;;5.40;99.90;;;;;;5068642;28;20036;-44
2022/01/29 03:12:41;;;;;;;34.85;16.88;;;5.30;99.90;;;;;;5070679;28;20035;-44
2022/01/29 03:15:08;;;;;;;43.78;18.35;;;5.40;99.90;;;;;;5062133;28;20027;-44
2022/01/29 03:17:34;;;;;;;37.92;19.48;;;5.30;99.90;;;;;;5063233;28;20493;-44
2022/01/29 03:19:59;;;;;;;41.53;18.65;;;5.30;99.90;;;;;;5062430;28;20036;-44
2022/01/29 03:22:25;;;;;;;38.53;18.50;;;5.30;99.90;;;;;;5062422;28;20202;-44
2022/01/29 03:24:50;;;;;;;39.53;18.42;;;5.30;99.90;;;;;;5066002;28;20103;-45
2022/01/29 03:27:16;;;;;;;40.05;19.05;;;5.30;99.90;;;;;;5055966;28;20101;-44
2022/01/29 03:29:42;;;;;;;45.45;20.35;;;5.30;99.90;;;;;;5048037;28;20044;-47
2022/01/29 03:32:08;;;;;;;42.10;19.27;;;5.20;99.90;;;;;;5056510;28;20028;-45
2022/01/29 03:34:33;;;;;;;44.38;21.30;;;5.20;99.90;;;;;;5040896;28;20029;-40
2022/01/29 03:36:59;;;;;;;44.80;19.95;;;5.30;99.90;;;;;;5045859;28;20087;-41
2022/01/29 03:39:26;;;;;;;39.67;18.75;;;5.30;99.90;;;;;;5044312;28;20043;-40
2022/01/29 03:41:52;;;;;;;43.22;19.15;;;5.30;99.90;;;;;;5053108;28;20404;-40
2022/01/29 03:44:17;;;;;;;44.10;20.38;;;5.30;99.90;;;;;;5049208;28;20029;-40
2022/01/29 03:46:45;;;;;;;43.50;19.88;;;5.30;99.90;;;;;;5051797;28;20390;-40
2022/01/29 03:49:11;;;;;;;45.33;21.17;;;5.30;99.90;;;;;;5037543;28;20768;-40
2022/01/29 03:51:36;;;;;;;41.88;21.05;;;5.30;99.90;;;;;;5041304;28;20025;-40
2022/01/29 03:54:02;;;;;;;47.90;21.25;;;5.30;99.90;;;;;;5041433;28;20100;-40
2022/01/29 03:56:27;;;;;;;43.63;21.95;;;5.30;99.90;;;;;;5048291;28;20032;-40
2022/01/29 03:58:52;;;;;;;48.67;22.27;;;5.30;99.90;;;;;;5040742;28;20501;-40
2022/01/29 04:01:18;;;;;;;46.08;21.33;;;5.30;99.90;;;;;;5044749;28;20029;-40
2022/01/29 04:03:44;;;;;;;48.08;22.42;;;5.30;99.90;;;;;;5035322;28;20029;-40
2022/01/29 04:06:09;;;;;;;45.67;21.90;;;5.30;99.90;;;;;;5032716;28;20049;-40
2022/01/29 04:08:40;;;;;;;48.67;22.52;;;5.30;99.90;;;;;;5060652;28;20024;-40
2022/01/29 04:11:08;;;;;;;46.10;23.80;;;5.20;99.90;;;;;;5069005;28;20035;-40
2022/01/29 04:13:33;;;;;;;54.75;23.52;;;5.20;99.90;;;;;;5054674;28;20458;-40
2022/01/29 04:15:59;;;;;;;48.33;23.17;;;5.20;99.90;;;;;;5066264;28;20020;-40
2022/01/29 04:18:24;;;;;;;49.95;23.25;;;5.10;99.90;;;;;;5067587;28;20042;-40
2022/01/29 04:20:50;;;;;;;49.38;23.70;;;5.10;99.90;;;;;;5068417;28;20028;-40
2022/01/29 04:23:15;;;;;;;51.50;23.27;;;5.10;99.90;;;;;;5059975;28;20029;-40
2022/01/29 04:25:41;;;;;;;56.63;26.30;;;5.10;99.90;;;;;;5063410;28;20033;-40
2022/01/29 04:28:09;;;;;;;51.30;24.98;;;5.10;99.90;;;;;;5061281;28;20493;-41
2022/01/29 04:30:44;;;;;;;57.88;24.38;;;5.10;99.90;;;;;;5054033;28;20017;-41
2022/01/29 04:35:44;;;;;;;55.40;24.42;;;5.10;99.90;;;;;;5054141;28;20072;-41
2022/01/29 04:38:10;;;;;;;46.00;24.88;;;5.10;99.90;;;;;;5057149;28;20021;-40
2022/01/29 04:40:36;;;;;;;58.03;26.05;;;5.10;99.90;;;;;;5067856;28;20123;-40
2022/01/29 04:43:02;;;;;;;54.92;26.00;;;5.00;99.90;;;;;;5050313;28;20055;-40
2022/01/29 04:45:28;;;;;;;53.72;26.83;;;5.00;99.90;;;;;;5061304;28;20033;-40
2022/01/29 04:47:53;;;;;;;52.83;26.38;;;5.00;99.90;;;;;;5057891;28;20518;-40
2022/01/29 04:50:19;;;;;;;56.90;26.88;;;5.10;99.90;;;;;;5059906;28;20474;-40
2022/01/29 04:52:44;;;;;;;55.00;26.95;;;5.10;99.90;;;;;;5068175;28;20044;-45
2022/01/29 04:55:11;;;;;;;61.10;27.58;;;5.10;99.90;;;;;;5054052;28;20036;-40
2022/01/29 04:57:37;;;;;;;65.28;27.58;;;5.10;99.90;;;;;;5059039;28;20021;-40
2022/01/29 05:00:07;;;;;;;59.85;28.65;;;5.10;99.90;;;;;;5056708;28;20671;-40
2022/01/29 05:02:33;;;;;;;56.78;28.10;;;5.10;99.90;;;;;;5058953;28;20029;-40
2022/01/29 05:04:58;;;;;;;60.17;29.27;;;5.20;99.90;;;;;;5068532;28;20035;-40
2022/01/29 05:07:23;;;;;;;61.30;30.38;;;5.20;99.90;;;;;;5050467;28;20565;-40
2022/01/29 05:09:49;;;;;;;56.65;28.13;;;5.20;99.90;;;;;;5057643;28;20166;-40
2022/01/29 05:12:20;;;;;;;60.35;28.35;;;5.20;99.90;;;;;;5059395;28;20105;-43
2022/01/29 05:15:04;;;;;;;59.22;28.00;;;5.30;99.90;;;;;;5049883;28;20074;-40
2022/01/29 05:28:26;;;;;;;53.90;25.88;;;5.40;99.90;;;;;;5027288;28;20043;-40
2022/01/29 05:30:52;;;;;;;48.80;25.67;;;5.40;99.90;;;;;;5043680;28;20421;-41
2022/01/29 05:33:17;;;;;;;47.05;24.33;;;5.50;99.90;;;;;;5059158;28;20031;-41
2022/01/29 05:35:43;;;;;;;51.25;25.00;;;5.50;99.90;;;;;;5061578;28;20028;-41
2022/01/29 05:38:08;;;;;;;54.38;26.63;;;5.50;99.90;;;;;;5054970;28;20108;-41
2022/01/29 05:40:34;;;;;;;48.58;25.88;;;5.50;99.90;;;;;;5058902;28;20458;-41
2022/01/29 05:42:59;;;;;;;53.13;25.70;;;5.50;99.90;;;;;;5054245;28;20184;-40
2022/01/29 05:45:25;;;;;;;54.13;26.42;;;5.50;99.90;;;;;;5067568;28;20363;-40
2022/01/29 05:47:50;;;;;;;50.78;25.35;;;5.50;99.90;;;;;;5066891;28;20039;-40
2022/01/29 05:50:16;;;;;;;49.75;25.33;;;5.50;99.90;;;;;;5062009;28;20032;-40
2022/01/29 05:52:41;;;;;;;51.15;25.92;;;5.50;99.90;;;;;;5059488;28;20077;-40
2022/01/29 05:55:07;;;;;;;51.10;27.15;;;5.60;99.90;;;;;;5034022;28;20025;-40
2022/01/29 05:57:33;;;;;;;50.38;25.77;;;5.60;99.90;;;;;;5058034;28;20036;-41
2022/01/29 05:59:58;;;;;;;50.20;25.42;;;5.60;99.90;;;;;;5043628;28;20108;-41
2022/01/29 06:02:24;;;;;;;49.83;27.20;;;5.60;99.90;;;;;;5052666;28;20058;-41
2022/01/29 06:04:49;;;;;;;48.45;26.08;;;5.60;99.90;;;;;;5046406;28;20493;-41
2022/01/29 06:07:15;;;;;;;55.70;28.02;;;5.60;99.90;;;;;;5058904;28;20462;-41
2022/01/29 06:09:40;;;;;;;47.50;25.15;;;5.60;99.90;;;;;;5068608;28;20498;-41
2022/01/29 06:12:06;;;;;;;50.80;27.13;;;5.60;99.90;;;;;;5051739;28;20108;-40
2022/01/29 06:14:32;;;;;;;49.53;24.40;;;5.60;99.90;;;;;;5039783;28;20192;-40
2022/01/29 06:16:57;;;;;;;54.78;25.25;;;5.70;99.90;;;;;;5052116;28;20518;-40
2022/01/29 06:19:23;;;;;;;48.00;25.73;;;5.80;99.90;;;;;;5065990;28;20619;-41
2022/01/29 06:21:48;;;;;;;47.83;25.77;;;5.80;99.90;;;;;;5050176;28;20455;-40
2022/01/29 06:24:14;;;;;;;44.50;24.02;;;5.80;99.90;;;;;;5045277;28;20089;-40
2022/01/29 06:26:39;;;;;;;45.10;24.35;;;5.90;99.90;;;;;;5051354;28;20155;-40
2022/01/29 06:29:05;;;;;;;45.20;26.13;;;5.90;99.90;;;;;;5056299;28;20094;-41
2022/01/29 06:31:30;;;;;;;46.80;24.35;;;5.90;99.90;;;;;;5068461;28;20028;-40
2022/01/29 06:33:56;;;;;;;44.90;24.08;;;5.90;99.90;;;;;;5043542;28;20030;-40
2022/01/29 06:36:21;;;;;;;47.35;24.35;;;6.00;99.90;;;;;;5055084;28;20021;-41
2022/01/29 06:38:47;;;;;;;44.72;24.17;;;6.00;99.90;;;;;;5065830;28;20516;-41
2022/01/29 06:41:12;;;;;;;45.53;23.60;;;6.00;99.90;;;;;;5057374;28;20041;-41
2022/01/29 06:43:38;;;;;;;42.25;23.65;;;6.00;99.90;;;;;;5059367;28;20028;-41
2022/01/29 06:46:03;;;;;;;41.17;23.40;;;6.10;99.90;;;;;;5063594;28;20036;-40
2022/01/29 06:48:29;;;;;;;43.20;22.60;;;6.10;99.90;;;;;;5063855;28;20032;-41
2022/01/29 06:50:55;;;;;;;47.17;23.85;;;6.10;99.90;;;;;;5059215;28;20033;-41
2022/01/29 06:53:20;;;;;;;42.63;22.77;;;6.20;99.90;;;;;;5062769;28;20068;-41
2022/01/29 06:55:46;;;;;;;41.70;22.77;;;6.30;99.90;;;;;;5066349;28;20593;-42
2022/01/29 06:58:11;;;;;;;43.15;23.83;;;6.20;99.90;;;;;;5062197;28;20039;-41
2022/01/29 07:00:37;;;;;;;41.03;23.00;;;6.20;99.90;;;;;;5063287;28;20051;-41
2022/01/29 07:03:02;;;;;;;37.83;21.65;;;6.30;99.90;;;;;;5059294;28;20033;-41
2022/01/29 07:05:28;;;;;;;43.55;21.33;;;6.30;99.90;;;;;;5069220;28;20020;-41
2022/01/29 07:07:53;;;;;;;39.75;22.25;;;6.30;99.90;;;;;;5055960;28;20080;-41
2022/01/29 07:10:19;;;;;;;38.33;21.05;;;6.40;99.90;;;;;;5059868;28;20032;-41
2022/01/29 07:12:44;;;;;;;40.58;22.77;;;6.40;99.90;;;;;;5063537;28;20050;-41
2022/01/29 07:15:10;;;;;;;41.60;22.10;;;6.40;99.90;;;;;;5067987;28;20045;-41
2022/01/29 07:17:36;;;;;;;40.00;21.45;;;6.40;99.90;;;;;;5061863;28;20067;-41
2022/01/29 07:20:03;;;;;;;34.85;20.73;;;6.40;99.90;;;;;;5060166;28;20049;-41
2022/01/29 07:22:29;;;;;;;37.35;21.67;;;6.40;99.90;;;;;;5071519;28;20029;-41
2022/01/29 07:24:54;;;;;;;38.13;22.17;;;6.40;99.90;;;;;;5058041;28;20025;-41
2022/01/29 07:27:20;;;;;;;33.85;20.60;;;6.40;99.90;;;;;;5062269;28;20020;-41
2022/01/29 07:29:45;;;;;;;37.60;20.90;;;6.40;99.90;;;;;;5070858;28;20032;-41
2022/01/29 07:32:11;;;;;;;38.55;22.20;;;6.40;99.90;;;;;;5052973;28;20055;-41
2022/01/29 07:34:37;;;;;;;39.38;21.60;;;6.50;99.90;;;;;;5053401;28;20470;-41
2022/01/29 07:37:03;;;;;;;36.72;22.58;;;6.50;99.90;;;;;;5063218;28;20055;-41
2022/01/29 07:39:28;;;;;;;36.50;21.45;;;6.50;99.90;;;;;;5056110;28;20533;-41
2022/01/29 07:41:55;;;;;;;35.55;20.92;;;6.50;99.90;;;;;;5058162;28;20078;-41
2022/01/29 07:44:21;;;;;;;35.15;21.90;;;6.50;99.90;;;;;;5050074;28;20501;-42
2022/01/29 07:46:47;;;;;;;38.97;22.35;;;6.50;99.90;;;;;;5054409;28;20028;-41
2022/01/29 07:49:13;;;;;;;43.10;22.77;;;6.50;99.90;;;;;;5050968;28;20029;-41
2022/01/29 07:51:39;;;;;;;37.88;21.55;;;6.60;99.90;;;;;;5065144;28;20079;-41
2022/01/29 07:54:04;;;;;;;45.65;24.13;;;6.60;99.90;;;;;;5064151;28;20367;-41
2022/01/29 07:56:30;;;;;;;36.00;23.08;;;6.60;99.90;;;;;;5041903;28;20017;-41
2022/01/29 07:58:55;;;;;;;39.13;23.17;;;6.70;99.90;;;;;;5040794;28;20024;-41
2022/01/29 08:01:21;;;;;;;37.22;21.65;;;6.70;99.90;;;;;;5043563;28;20077;-41
2022/01/29 08:03:48;;;;;;;37.40;22.80;;;6.70;99.90;;;;;;5043552;28;20063;-41
2022/01/29 08:06:18;;;;;;;41.28;23.42;;;6.70;99.90;;;;;;5039666;28;20024;-41
2022/01/29 08:08:43;;;;;;;40.20;22.75;;;6.70;99.90;;;;;;5040467;28;20575;-41
2022/01/29 08:11:10;;;;;;;39.22;24.05;;;6.70;99.90;;;;;;5038691;28;20025;-41
2022/01/29 08:13:36;;;;;;;38.13;23.45;;;6.70;99.90;;;;;;5042477;28;20017;-41
2022/01/29 08:16:03;;;;;;;39.17;22.17;;;6.70;99.90;;;;;;5040371;28;20032;-41
2022/01/29 08:18:28;;;;;;;41.70;23.00;;;6.70;99.90;;;;;;5043290;28;20103;-41
2022/01/29 08:20:54;;;;;;;39.78;23.48;;;6.70;99.90;;;;;;5038730;28;20025;-41
2022/01/29 08:23:19;;;;;;;36.67;22.10;;;6.70;99.90;;;;;;5055705;28;20032;-41
2022/01/29 08:25:45;;;;;;;37.85;23.33;;;6.70;99.90;;;;;;5048070;28;20032;-41
2022/01/29 08:28:11;;;;;;;33.35;21.70;;;6.80;99.90;;;;;;5059806;28;20033;-41
2022/01/29 08:30:37;;;;;;;40.03;24.35;;;6.80;99.90;;;;;;5062417;28;20217;-41
2022/01/29 08:33:05;;;;;;;39.65;24.00;;;6.80;99.90;;;;;;5060534;28;20029;-41
2022/01/29 08:35:31;;;;;;;36.40;21.05;;;6.90;99.90;;;;;;5056388;28;20019;-41
2022/01/29 08:37:57;;;;;;;40.88;22.48;;;6.90;99.90;;;;;;5060441;28;20585;-41
2022/01/29 08:40:23;;;;;;;36.10;21.85;;;7.00;99.90;;;;;;5069629;28;20576;-41
2022/01/29 08:42:48;;;;;;;36.33;22.52;;;7.00;99.90;;;;;;5068754;28;20131;-41
2022/01/29 08:45:14;;;;;;;36.13;21.40;;;7.00;99.90;;;;;;5039378;28;20052;-41
2022/01/29 08:47:41;;;;;;;41.65;22.58;;;7.00;99.90;;;;;;5037812;28;20457;-41
2022/01/29 08:50:08;;;;;;;38.08;22.85;;;7.10;99.90;;;;;;5038268;28;20558;-42
2022/01/29 08:52:34;;;;;;;32.97;20.85;;;7.10;99.90;;;;;;5047267;28;20028;-41
2022/01/29 08:55:02;;;;;;;33.45;21.00;;;7.10;99.90;;;;;;5041016;28;20017;-41
2022/01/29 08:57:28;;;;;;;37.00;20.52;;;7.10;99.90;;;;;;5038388;28;20029;-41
2022/01/29 08:59:54;;;;;;;36.10;22.80;;;7.10;99.90;;;;;;5045241;28;20970;-42
2022/01/29 09:02:19;;;;;;;30.13;20.38;;;7.10;99.90;;;;;;5048889;28;20025;-42
2022/01/29 09:04:45;;;;;;;35.42;21.42;;;7.10;99.90;;;;;;5040884;28;20123;-42
2022/01/29 09:07:10;;;;;;;29.67;19.05;;;7.10;99.90;;;;;;5050206;28;20089;-41
2022/01/29 09:09:36;;;;;;;30.48;19.63;;;7.10;99.90;;;;;;5040734;28;20047;-41
2022/01/29 09:12:02;;;;;;;30.80;20.13;;;7.20;99.90;;;;;;5047506;28;20039;-41
2022/01/29 09:14:28;;;;;;;32.55;19.83;;;7.20;99.90;;;;;;5039921;28;20021;-42
2022/01/29 09:16:57;;;;;;;27.98;18.63;;;7.20;99.90;;;;;;5040703;28;20365;-46
2022/01/29 09:19:22;;;;;;;28.15;18.02;;;7.20;99.90;;;;;;5045807;28;20032;-42
2022/01/29 09:21:48;;;;;;;31.02;19.55;;;7.30;99.90;;;;;;5041699;28;20029;-42
2022/01/29 09:24:13;;;;;;;33.10;20.38;;;7.20;99.90;;;;;;5049286;28;20103;-42
2022/01/29 09:26:39;;;;;;;30.48;19.25;;;7.30;99.90;;;;;;5047233;28;20148;-42
2022/01/29 09:29:04;;;;;;;34.78;19.52;;;7.20;99.90;;;;;;5048259;28;20030;-40
2022/01/29 09:31:30;;;;;;;32.72;18.65;;;7.30;99.90;;;;;;5061022;28;20021;-40
2022/01/29 09:33:57;;;;;;;33.05;19.85;;;7.30;99.90;;;;;;5064818;28;20016;-42
2022/01/29 09:36:23;;;;;;;31.48;20.05;;;7.30;99.90;;;;;;5060672;28;20020;-42
2022/01/29 09:38:48;;;;;;;32.42;18.83;;;7.30;99.90;;;;;;5052057;28;20486;-42
2022/01/29 09:41:15;;;;;;;31.13;18.38;;;7.30;99.90;;;;;;5061005;28;20503;-40
2022/01/29 09:43:43;;;;;;;32.00;19.30;;;7.30;99.90;;;;;;5055517;28;20130;-40
2022/01/29 09:46:10;;;;;;;32.10;20.75;;;7.30;99.90;;;;;;5050443;28;20056;-40
2022/01/29 09:48:36;;;;;;;33.92;19.73;;;7.30;99.90;;;;;;5050603;28;20021;-40
2022/01/29 09:51:01;;;;;;;34.65;20.48;;;7.30;99.90;;;;;;5057059;28;20025;-41
2022/01/29 09:53:27;;;;;;;43.78;21.90;;;7.30;99.90;;;;;;5055354;28;20035;-41
2022/01/29 09:55:53;;;;;;;37.95;21.48;;;7.30;99.90;;;;;;5060424;28;20036;-41
2022/01/29 09:58:18;;;;;;;36.13;21.50;;;7.30;99.90;;;;;;5068409;28;20031;-41
2022/01/29 10:00:44;;;;;;;37.22;21.50;;;7.30;99.90;;;;;;5048641;28;20087;-40
2022/01/29 10:03:10;;;;;;;39.47;22.25;;;7.30;99.90;;;;;;5058059;28;20498;-41
2022/01/29 10:05:40;;;;;;;37.63;21.40;;;7.40;99.90;;;;;;5051894;28;20027;-41
2022/01/29 10:08:06;;;;;;;35.80;21.00;;;7.30;99.90;;;;;;5059580;28;20036;-41
2022/01/29 10:10:44;;;;;;;35.15;20.40;;;7.30;99.90;;;;;;5064064;28;20040;-41
2022/01/29 10:13:30;;;;;;;44.08;23.10;;;7.40;99.90;;;;;;5046890;28;20096;-41
2022/01/29 10:16:04;;;;;;;41.58;22.48;;;7.40;99.90;;;;;;5041493;28;20108;-42
2022/01/29 10:18:30;;;;;;;41.13;21.73;;;7.40;99.90;;;;;;5035263;28;20029;-41
2022/01/29 10:21:13;;;;;;;39.58;22.08;;;7.40;99.90;;;;;;5057559;28;20059;-42
2022/01/29 10:23:40;;;;;;;37.88;20.35;;;7.40;99.90;;;;;;5061473;28;20025;-41
2022/01/29 10:26:07;;;;;;;42.97;24.02;;;7.50;99.90;;;;;;5063746;28;20020;-41
2022/01/29 10:28:32;;;;;;;34.30;19.50;;;7.50;99.90;;;;;;5061044;28;20020;-41
2022/01/29 10:31:01;;;;;;;41.60;22.58;;;7.60;99.90;;;;;;5050501;28;20037;-42
2022/01/29 10:33:31;;;;;;;40.00;21.17;;;7.60;99.90;;;;;;5063800;28;20021;-41
2022/01/29 10:36:02;;;;;;;39.22;20.77;;;7.60;99.90;;;;;;5063509;28;20555;-41
2022/01/29 10:38:39;;;;;;;35.72;21.08;;;7.60;99.90;;;;;;5054335;28;20064;-41
2022/01/29 10:41:23;;;;;;;36.42;20.27;;;7.60;99.90;;;;;;5048300;28;20101;-41
2022/01/29 10:44:17;;;;;;;43.58;20.85;;;7.60;99.90;;;;;;5063294;28;20020;-41
2022/01/29 10:46:46;;;;;;;42.50;20.35;;;7.60;99.90;;;;;;5057033;28;20021;-41
2022/01/29 10:49:51;;;;;;;39.15;20.58;;;7.70;99.90;;;;;;5062480;28;20020;-43
2022/01/29 10:52:24;;;;;;;42.95;21.38;;;7.70;99.90;;;;;;5056782;28;20386;-41
2022/01/29 10:54:59;;;;;;;39.03;19.25;;;7.70;99.90;;;;;;5050281;28;20037;-42
2022/01/29 10:57:49;;;;;;;35.80;19.73;;;7.80;99.90;;;;;;5056859;28;20442;-42
2022/01/29 11:00:20;;;;;;;32.50;19.45;;;7.80;99.90;;;;;;5069549;28;20435;-41
2022/01/29 11:02:46;;;;;;;36.25;18.98;;;7.80;99.90;;;;;;5060708;28;20044;-41
2022/01/29 11:05:12;;;;;;;36.35;20.30;;;7.90;99.90;;;;;;5065018;28;20949;-41
2022/01/29 11:07:38;;;;;;;36.67;20.30;;;7.90;99.90;;;;;;5053630;28;20040;-41
2022/01/29 11:10:09;;;;;;;33.90;18.05;;;7.90;99.90;;;;;;5065041;28;20029;-41
2022/01/29 11:12:36;;;;;;;34.22;19.00;;;8.00;99.90;;;;;;5065410;28;20378;-41
2022/01/29 11:15:03;;;;;;;30.40;17.15;;;7.90;99.90;;;;;;5057970;28;20028;-41
2022/01/29 11:17:30;;;;;;;31.15;17.45;;;8.00;99.90;;;;;;5051637;28;20382;-41
2022/01/29 11:19:56;;;;;;;26.92;15.68;;;7.90;99.90;;;;;;5068209;28;20021;-41
2022/01/29 11:22:28;;;;;;;32.35;16.95;;;7.90;99.90;;;;;;5043807;28;20020;-41
2022/01/29 11:25:05;;;;;;;29.20;15.90;;;8.00;99.90;;;;;;5063209;28;20016;-41
2022/01/29 11:27:33;;;;;;;31.02;14.98;;;8.00;99.90;;;;;;5052987;28;20025;-42
2022/01/29 11:30:08;;;;;;;25.23;15.02;;;8.00;99.90;;;;;;5057565;28;20021;-41
2022/01/29 11:32:52;;;;;;;26.58;15.13;;;8.00;99.90;;;;;;5063203;28;20075;-41
2022/01/29 11:35:22;;;;;;;28.13;15.80;;;7.90;99.90;;;;;;5050380;28;20020;-41
2022/01/29 11:37:52;;;;;;;18.67;12.20;;;7.90;99.90;;;;;;5066567;28;20025;-42
2022/01/29 11:40:19;;;;;;;20.50;13.05;;;8.00;99.90;;;;;;5045728;28;20029;-41
2022/01/29 11:43:09;;;;;;;20.98;11.98;;;8.10;99.90;;;;;;5058543;28;20397;-42
2022/01/29 11:45:52;;;;;;;19.65;11.13;;;8.00;99.90;;;;;;5052579;28;20028;-41
2022/01/29 11:48:24;;;;;;;17.25;10.77;;;8.10;99.90;;;;;;5049192;28;20028;-41
2022/01/29 11:50:51;;;;;;;14.52;8.93;;;8.20;99.90;;;;;;5066782;28;20060;-43
2022/01/29 11:53:18;;;;;;;13.93;8.93;;;8.20;99.90;;;;;;5070227;28;20075;-42
2022/01/29 11:55:49;;;;;;;15.27;9.88;;;8.20;99.90;;;;;;5055236;28;20050;-42
2022/01/29 11:58:23;;;;;;;;;;;8.20;99.90;;;;;;5061962;28;20025;-42
2022/01/29 12:00:58;;;;;;;13.80;7.47;;;8.20;99.90;;;;;;5057594;28;19955;-45
2022/01/29 12:03:33;;;;;;;14.23;7.80;;;8.30;99.90;;;;;;5050293;28;20032;-42
2022/01/29 12:06:25;;;;;;;12.45;7.88;;;8.30;99.90;;;;;;5062116;28;20017;-41
2022/01/29 12:09:07;;;;;;;11.63;7.22;;;8.40;99.90;;;;;;5056147;28;20126;-41
2022/01/29 12:11:38;;;;;;;11.35;7.13;;;8.40;99.90;;;;;;5056131;28;20025;-42
2022/01/29 12:14:13;;;;;;;11.93;6.75;;;8.50;99.90;;;;;;5042065;28;20021;-41
2022/01/29 12:16:59;;;;;;;13.27;6.78;;;8.50;99.90;;;;;;5041273;28;20017;-41
2022/01/29 12:19:42;;;;;;;12.02;6.80;;;8.60;99.90;;;;;;5049176;28;20021;-41
2022/01/29 12:22:23;;;;;;;7.57;5.85;;;8.70;99.90;;;;;;5053391;28;20032;-41
2022/01/29 12:24:50;;;;;;;10.63;6.40;;;8.60;99.90;;;;;;5059345;28;20020;-41
2022/01/29 12:27:16;;;;;;;9.43;5.82;;;8.70;99.90;;;;;;5057725;28;20027;-41
2022/01/29 12:29:42;;;;;;;9.65;6.50;;;8.70;99.90;;;;;;5037748;28;20030;-42
2022/01/29 12:32:09;;;;;;;9.10;6.25;;;8.70;99.90;;;;;;5047285;28;20040;-41
2022/01/29 12:34:35;;;;;;;9.27;6.13;;;8.70;99.90;;;;;;5056022;28;20367;-41
2022/01/29 12:37:08;;;;;;;9.05;6.20;;;8.80;99.90;;;;;;5061172;28;20032;-42
2022/01/29 12:39:35;;;;;;;8.30;5.88;;;8.80;99.90;;;;;;5055684;28;20391;-42
2022/01/29 12:42:06;;;;;;;8.52;5.88;;;8.80;99.90;;;;;;5056425;28;20106;-42
2022/01/29 12:44:32;;;;;;;11.73;5.78;;;8.80;99.90;;;;;;5068932;28;20543;-42
2022/01/29 12:46:58;;;;;;;11.35;6.95;;;8.90;99.90;;;;;;5050799;28;20033;-41
2022/01/29 12:49:23;;;;;;;8.48;5.55;;;8.90;99.90;;;;;;5060401;28;20020;-49
2022/01/29 12:51:55;;;;;;;11.07;6.57;;;8.90;99.90;;;;;;5058438;28;20082;-41
2022/01/29 12:54:22;;;;;;;12.10;5.90;;;8.90;99.90;;;;;;5045846;28;20059;-41